Time;durP1;ratioP1;P1;durP2;ratioP2;P2;SDS_P1;SDS_P2;PMS_P1;PMS_P2;Temp;Humidity;BMP_temperature;BMP_pressure;BME280_temperature;BME280_humidity;BME280_pressure;Samples;Min_cycle;Max_cycle;Signal;HPM_P1;HPM_P2
2022/07/15 00:02:01;;;;;;;;;;;;;;;26.53;39.99;99495.12;4339619;32;20034;-80
2022/07/15 00:04:28;;;;;;;;;;;;;;;26.48;40.77;99511.28;4339279;32;19976;-81
2022/07/15 00:06:55;;;;;;;;;;;;;;;26.58;39.88;99514.28;4337830;32;19983;-81
2022/07/15 00:10:13;;;;;;;;;;;;;;;26.23;41.14;99497.59;4337751;32;20066;-81
2022/07/15 00:12:09;;;;;;;;;;;;;;;25.96;41.31;99475.13;4338516;32;19975;-80
2022/07/15 00:14:36;;;;;;;;;;;;;;;26.39;40.46;99475.47;4329413;32;20076;-81
2022/07/15 00:17:03;;;;;;;;;;;;;;;26.68;40.00;99488.97;4322623;33;19998;-81
2022/07/15 00:19:30;;;;;;;;;;;;;;;26.57;40.69;99496.66;4324330;33;19980;-81
2022/07/15 00:21:57;;;;;;;;;;;;;;;26.61;40.20;99488.47;4324030;33;20058;-82
2022/07/15 00:24:24;;;;;;;;;;;;;;;26.41;41.08;99478.88;4324148;33;19972;-81
2022/07/15 00:26:51;;;;;;;;;;;;;;;26.49;40.79;99472.34;4324061;33;19999;-81
2022/07/15 00:29:18;;;;;;;;;;;;;;;26.64;40.13;99466.16;4324777;33;20039;-80
2022/07/15 00:31:45;;;;;;;;;;;;;;;26.36;41.38;99457.06;4324317;32;20059;-82
2022/07/15 00:34:12;;;;;;;;;;;;;;;26.59;40.52;99447.00;4323620;33;20832;-82
2022/07/15 00:36:39;;;;;;;;;;;;;;;26.49;41.61;99445.81;4323996;33;20046;-82
2022/07/15 00:39:06;;;;;;;;;;;;;;;26.09;42.16;99434.69;4323825;33;20031;-82
2022/07/15 00:41:39;;;;;;;;;;;;;;;26.39;41.42;99440.97;4324744;33;19984;-81
2022/07/15 00:44:06;;;;;;;;;;;;;;;26.56;41.35;99463.09;4323627;33;20031;-82
2022/07/15 00:46:34;;;;;;;;;;;;;;;26.68;40.69;99430.56;4323933;33;20004;-82
2022/07/15 00:49:02;;;;;;;;;;;;;;;26.62;41.33;99426.44;4324117;33;20023;-82
2022/07/15 00:51:42;;;;;;;;;;;;;;;26.73;41.66;99433.78;4323832;33;20341;-83
2022/07/15 00:54:10;;;;;;;;;;;;;;;26.69;42.11;99426.94;4324514;33;19976;-83
2022/07/15 00:56:40;;;;;;;;;;;;;;;26.70;41.47;99419.81;4320893;33;19999;-82
2022/07/15 00:59:07;;;;;;;;;;;;;;;26.70;41.58;99423.34;4323460;33;20015;-82
2022/07/15 01:01:35;;;;;;;;;;;;;;;26.65;42.37;99425.41;4323671;33;20345;-81
2022/07/15 01:04:03;;;;;;;;;;;;;;;26.69;42.11;99426.94;4325150;33;20007;-82
2022/07/15 01:06:30;;;;;;;;;;;;;;;26.65;42.47;99442.19;4322746;33;20002;-81
2022/07/15 01:08:57;;;;;;;;;;;;;;;26.66;42.20;99464.28;4324585;33;20058;-83
2022/07/15 01:11:24;;;;;;;;;;;;;;;26.80;42.05;99471.47;4323492;33;19998;-81
2022/07/15 01:13:51;;;;;;;;;;;;;;;26.84;41.84;99473.88;4325886;33;19980;-81
2022/07/15 01:16:18;;;;;;;;;;;;;;;26.84;41.91;99467.72;4314273;32;20818;-83
2022/07/15 01:18:45;;;;;;;;;;;;;;;26.96;41.30;99476.75;4311665;32;19992;-82
2022/07/15 01:21:12;;;;;;;;;;;;;;;26.99;41.56;99492.53;4310368;32;20039;-81
2022/07/15 01:23:42;;;;;;;;;;;;;;;26.89;42.06;99487.75;4310670;33;19988;-82
2022/07/15 01:26:10;;;;;;;;;;;;;;;26.98;41.57;99490.81;4309311;33;20052;-82
2022/07/15 01:28:38;;;;;;;;;;;;;;;26.85;41.02;99496.84;4311805;33;20000;-81
2022/07/15 01:31:06;;;;;;;;;;;;;;;26.78;40.78;99494.62;4310197;33;20449;-81
2022/07/15 01:33:34;;;;;;;;;;;;;;;27.05;39.93;99494.84;4311862;33;20598;-81
2022/07/15 01:36:01;;;;;;;;;;;;;;;27.10;39.67;99496.28;4309707;33;19973;-82
2022/07/15 01:38:29;;;;;;;;;;;;;;;27.20;39.76;99494.00;4312180;33;19988;-82
2022/07/15 01:40:57;;;;;;;;;;;;;;;27.02;40.00;99493.22;4310059;33;19988;-82
2022/07/15 01:43:25;;;;;;;;;;;;;;;27.07;39.88;99485.84;4311699;33;20699;-82
2022/07/15 01:45:52;;;;;;;;;;;;;;;27.13;39.87;99484.63;4310300;33;20015;-82
2022/07/15 01:51:07;;;;;;;;;;;;;;;27.05;40.64;99486.88;4311095;33;20054;-82
2022/07/15 01:53:34;;;;;;;;;;;;;;;27.06;40.48;99493.91;4310256;33;20059;-82
2022/07/15 01:56:07;;;;;;;;;;;;;;;26.84;41.43;99481.00;4310451;33;20103;-82
2022/07/15 01:58:34;;;;;;;;;;;;;;;27.05;40.87;99486.88;4310430;33;20043;-82
2022/07/15 02:01:01;;;;;;;;;;;;;;;27.04;41.16;99479.84;4310817;33;19996;-81
2022/07/15 02:03:28;;;;;;;;;;;;;;;26.98;41.39;99497.00;4309502;33;19976;-81
2022/07/15 02:05:55;;;;;;;;;;;;;;;26.95;41.29;99513.09;4299265;33;20095;-81
2022/07/15 02:08:24;;;;;;;;;;;;;;;27.02;41.09;99497.66;4297921;32;805562;-80
2022/07/15 02:10:52;;;;;;;;;;;;;;;27.13;40.79;99481.97;4317744;32;19992;-81
2022/07/15 02:13:19;;;;;;;;;;;;;;;27.10;41.08;99468.88;4326614;33;19967;-81
2022/07/15 02:15:46;;;;;;;;;;;;;;;27.16;40.82;99480.97;4322883;32;20454;-82
2022/07/15 02:18:13;;;;;;;;;;;;;;;27.12;41.25;99478.47;4326340;33;19980;-82
2022/07/15 02:20:40;;;;;;;;;;;;;;;27.08;41.52;99484.88;4326594;32;20440;-81
2022/07/15 02:23:07;;;;;;;;;;;;;;;27.15;41.41;99498.69;4327937;32;20036;-82
2022/07/15 02:25:35;;;;;;;;;;;;;;;27.17;41.36;99496.81;4309279;33;19998;-81
2022/07/15 02:28:03;;;;;;;;;;;;;;;27.17;41.38;99515.44;4309280;33;20031;-81
2022/07/15 02:30:31;;;;;;;;;;;;;;;27.18;41.70;99527.75;4310976;33;19976;-81
2022/07/15 02:32:59;;;;;;;;;;;;;;;27.15;41.90;99551.84;4309373;33;20040;-80
2022/07/15 02:35:26;;;;;;;;;;;;;;;27.33;40.95;99568.56;4311560;33;19981;-81
2022/07/15 02:37:53;;;;;;;;;;;;;;;27.25;41.17;99579.63;4307080;33;20782;-80
2022/07/15 02:40:20;;;;;;;;;;;;;;;27.45;39.23;99589.13;4310667;33;20319;-81
2022/07/15 02:42:49;;;;;;;;;;;;;;;27.42;38.70;99586.62;4333087;32;19988;-81
2022/07/15 02:45:16;;;;;;;;;;;;;;;27.48;38.19;99582.78;4333380;33;20040;-81
2022/07/15 02:47:43;;;;;;;;;;;;;;;27.32;37.55;99578.34;4310896;33;19984;-81
2022/07/15 02:50:11;;;;;;;;;;;;;;;27.35;38.18;99580.81;4310561;33;19976;-80
2022/07/15 02:52:38;;;;;;;;;;;;;;;27.39;37.66;99585.97;4309748;33;20161;-81
2022/07/15 02:55:05;;;;;;;;;;;;;;;27.43;35.58;99584.84;4308036;33;20024;-81
2022/07/15 02:57:33;;;;;;;;;;;;;;;27.35;35.78;99583.47;4309157;33;20060;-81
2022/07/15 03:00:00;;;;;;;;;;;;;;;27.28;34.91;99579.47;4310608;33;19995;-81
2022/07/15 03:02:30;;;;;;;;;;;;;;;27.54;34.22;99585.94;4309847;33;19989;-80
2022/07/15 03:05:00;;;;;;;;;;;;;;;27.41;35.35;99569.00;4313539;32;20813;-82
2022/07/15 03:07:30;;;;;;;;;;;;;;;27.40;35.60;99572.56;4308963;32;19992;-81
2022/07/15 03:09:57;;;;;;;;;;;;;;;27.41;35.63;99576.06;4309706;33;19979;-82
2022/07/15 03:12:24;;;;;;;;;;;;;;;27.41;34.45;99573.41;4310179;33;19998;-81
2022/07/15 03:14:53;;;;;;;;;;;;;;;27.24;35.10;99567.28;4308031;33;20104;-79
2022/07/15 03:17:20;;;;;;;;;;;;;;;27.53;33.80;99578.03;4309133;33;19976;-81
2022/07/15 03:19:47;;;;;;;;;;;;;;;27.54;33.95;99577.09;4311028;33;20035;-80
2022/07/15 03:22:14;;;;;;;;;;;;;;;27.52;34.11;99589.63;4309887;33;20027;-79
2022/07/15 03:24:41;;;;;;;;;;;;;;;27.63;34.18;99595.16;4311179;33;20007;-81
2022/07/15 03:27:08;;;;;;;;;;;;;;;27.70;33.64;99585.91;4307102;33;20039;-80
2022/07/15 03:29:36;;;;;;;;;;;;;;;27.64;33.77;99585.41;4311073;33;20036;-81
2022/07/15 03:32:03;;;;;;;;;;;;;;;27.54;34.28;99585.09;4308866;33;20035;-81
2022/07/15 03:34:30;;;;;;;;;;;;;;;27.59;34.62;99583.00;4309669;33;20067;-80
2022/07/15 03:36:59;;;;;;;;;;;;;;;27.54;35.03;99577.09;4309755;33;20040;-81
2022/07/15 03:39:26;;;;;;;;;;;;;;;27.60;35.03;99579.41;4310991;33;20034;-80
2022/07/15 03:41:53;;;;;;;;;;;;;;;27.69;34.82;99578.84;4331499;33;20036;-82
2022/07/15 03:44:19;;;;;;;;;;;;;;;27.56;35.65;99578.72;4309049;33;19999;-82
2022/07/15 03:46:46;;;;;;;;;;;;;;;27.57;35.35;99576.94;4308957;33;20312;-80
2022/07/15 03:49:14;;;;;;;;;;;;;;;27.43;35.73;99577.72;4309646;33;19980;-80
2022/07/15 03:51:41;;;;;;;;;;;;;;;27.45;36.25;99590.94;4311386;32;19992;-81
2022/07/15 03:54:10;;;;;;;;;;;;;;;27.52;36.01;99586.97;4305172;33;19989;-80
2022/07/15 03:56:37;;;;;;;;;;;;;;;27.54;36.26;99606.34;4011042;32;10001015;-81
2022/07/15 03:59:03;;;;;;;;;;;;;;;27.45;36.24;99633.47;4308074;33;20003;-80
2022/07/15 04:01:30;;;;;;;;;;;;;;;27.61;35.88;99634.31;4310004;33;20055;-81
2022/07/15 04:03:58;;;;;;;;;;;;;;;27.40;36.64;99624.88;4310007;33;20004;-81
2022/07/15 04:06:25;;;;;;;;;;;;;;;27.31;36.61;99621.81;4309451;32;19981;-82
2022/07/15 04:08:52;;;;;;;;;;;;;;;27.45;36.64;99613.06;4308252;33;20347;-81
2022/07/15 04:11:19;;;;;;;;;;;;;;;27.37;36.47;99610.81;4310056;33;20031;-81
2022/07/15 04:13:46;;;;;;;;;;;;;;;27.28;36.50;99606.03;4331129;33;19989;-82
2022/07/15 04:16:14;;;;;;;;;;;;;;;27.36;36.19;99603.78;4310342;33;19988;-81
2022/07/15 04:18:42;;;;;;;;;;;;;;;27.31;36.35;99611.19;4309363;33;20599;-81
2022/07/15 04:21:09;;;;;;;;;;;;;;;27.35;36.37;99618.03;4309860;33;20004;-81
2022/07/15 04:23:39;;;;;;;;;;;;;;;27.25;36.66;99606.22;4298836;33;19992;-81
2022/07/15 04:26:08;;;;;;;;;;;;;;;27.30;36.69;99630.72;4308146;33;20032;-80
2022/07/15 04:28:35;;;;;;;;;;;;;;;27.05;37.21;99635.66;4332936;33;20326;-81
2022/07/15 04:31:01;;;;;;;;;;;;;;;26.82;37.87;99632.47;4331564;33;20007;-80
2022/07/15 04:33:31;;;;;;;;;;;;;;;26.82;38.47;99629.81;4308252;33;20000;-80
2022/07/15 04:35:58;;;;;;;;;;;;;;;27.13;37.17;99633.44;4300867;33;19980;-80
2022/07/15 04:38:25;;;;;;;;;;;;;;;26.97;37.54;99638.75;4303587;33;19992;-80
2022/07/15 04:40:55;;;;;;;;;;;;;;;26.88;38.25;99640.09;4303899;33;20010;-81
2022/07/15 04:43:22;;;;;;;;;;;;;;;26.96;38.22;99636.16;4305689;33;20063;-80
2022/07/15 04:45:48;;;;;;;;;;;;;;;26.29;40.32;99641.47;4305217;33;19992;-79
2022/07/15 04:51:02;;;;;;;;;;;;;;;26.50;39.93;99638.66;4323651;33;19996;-80
2022/07/15 04:53:30;;;;;;;;;;;;;;;25.97;41.60;99641.31;4337586;32;19980;-80
2022/07/15 04:55:56;;;;;;;;;;;;;;;26.23;40.83;99641.78;4321768;33;19980;-78
2022/07/15 04:58:23;;;;;;;;;;;;;;;26.12;41.26;99630.84;4323997;33;20019;-80
2022/07/15 05:00:50;;;;;;;;;;;;;;;26.06;41.79;99639.12;4322607;33;20309;-79
2022/07/15 05:03:18;;;;;;;;;;;;;;;26.04;41.88;99646.28;4319746;33;20015;-79
2022/07/15 05:05:46;;;;;;;;;;;;;;;25.85;42.29;99641.94;4323582;33;19984;-80
2022/07/15 05:08:15;;;;;;;;;;;;;;;25.91;42.26;99644.28;4323050;33;20047;-80
2022/07/15 05:10:43;;;;;;;;;;;;;;;25.86;42.51;99640.13;4321752;33;20566;-80
2022/07/15 05:13:10;;;;;;;;;;;;;;;25.82;42.57;99642.09;4316093;33;19976;-79
2022/07/15 05:15:37;;;;;;;;;;;;;;;25.51;43.48;99638.25;4310041;33;19988;-80
2022/07/15 05:18:05;;;;;;;;;;;;;;;25.56;43.53;99650.41;3988810;32;10004248;-79
2022/07/15 05:20:32;;;;;;;;;;;;;;;25.73;43.15;99658.41;4284312;33;20025;-79
2022/07/15 05:22:59;;;;;;;;;;;;;;;25.70;43.53;99666.50;4284753;33;20003;-80
2022/07/15 05:25:26;;;;;;;;;;;;;;;25.51;44.44;99680.66;4299667;33;19976;-80
2022/07/15 05:27:53;;;;;;;;;;;;;;;25.37;45.20;99679.63;4322260;33;19998;-79
2022/07/15 05:30:21;;;;;;;;;;;;;;;25.37;45.22;99664.56;4320582;33;19992;-79
2022/07/15 05:32:48;;;;;;;;;;;;;;;25.44;45.15;99668.63;4310253;33;20451;-79
2022/07/15 05:35:16;;;;;;;;;;;;;;;24.92;47.22;99675.47;4316535;33;19968;-79
2022/07/15 05:37:43;;;;;;;;;;;;;;;25.12;46.62;99683.41;4318172;33;20362;-79
2022/07/15 05:40:11;;;;;;;;;;;;;;;25.10;46.97;99679.06;4310472;33;20325;-79
2022/07/15 05:42:39;;;;;;;;;;;;;;;24.95;47.56;99694.75;4327367;33;20010;-79
2022/07/15 05:45:08;;;;;;;;;;;;;;;24.83;47.81;99692.66;4310463;33;19980;-79
2022/07/15 05:47:38;;;;;;;;;;;;;;;24.87;47.87;99694.22;4313364;33;19992;-79
2022/07/15 05:50:06;;;;;;;;;;;;;;;24.52;49.06;99699.28;4318482;32;19980;-79
2022/07/15 05:52:35;;;;;;;;;;;;;;;24.73;48.56;99696.63;4324378;33;19992;-80
2022/07/15 05:55:04;;;;;;;;;;;;;;;24.49;49.28;99693.28;4319794;33;19984;-80
2022/07/15 05:57:32;;;;;;;;;;;;;;;24.70;48.36;99707.38;4320987;33;19979;-81
2022/07/15 06:00:00;;;;;;;;;;;;;;;24.82;48.17;99727.97;4315878;33;19996;-80
2022/07/15 06:02:29;;;;;;;;;;;;;;;24.13;50.45;99728.28;4315270;33;20443;-81
2022/07/15 06:04:56;;;;;;;;;;;;;;;24.44;49.31;99746.41;4316667;33;20784;-82
2022/07/15 06:07:23;;;;;;;;;;;;;;;24.47;49.34;99748.91;4320507;33;19995;-81
2022/07/15 06:09:51;;;;;;;;;;;;;;;24.34;49.84;99739.72;4326072;33;20412;-81
2022/07/15 06:12:19;;;;;;;;;;;;;;;24.20;50.44;99729.72;4298827;33;19983;-81
2022/07/15 06:14:45;;;;;;;;;;;;;;;24.13;50.91;99734.44;4329719;33;19987;-81
2022/07/15 06:17:12;;;;;;;;;;;;;;;24.51;50.00;99733.78;4326543;33;19983;-80
2022/07/15 06:19:40;;;;;;;;;;;;;;;24.45;50.05;99734.87;4326149;33;20027;-81
2022/07/15 06:22:07;;;;;;;;;;;;;;;24.11;51.20;99730.97;4326084;33;19984;-81
2022/07/15 06:24:34;;;;;;;;;;;;;;;24.30;50.13;99740.78;4326151;33;19986;-81
2022/07/15 06:27:01;;;;;;;;;;;;;;;23.98;51.28;99742.97;4326337;33;20729;-81
2022/07/15 06:29:28;;;;;;;;;;;;;;;24.17;50.58;99761.59;4321570;33;20018;-81
2022/07/15 06:31:55;;;;;;;;;;;;;;;23.97;50.89;99765.06;4315387;33;20440;-82
2022/07/15 06:34:22;;;;;;;;;;;;;;;24.07;50.68;99760.25;4323741;33;20063;-81
2022/07/15 06:36:53;;;;;;;;;;;;;;;24.17;50.35;99750.16;4320613;33;19995;-82
2022/07/15 06:39:24;;;;;;;;;;;;;;;24.43;49.80;99747.31;4324240;33;19992;-81
2022/07/15 06:41:52;;;;;;;;;;;;;;;24.28;50.27;99758.50;4313622;33;20331;-79
2022/07/15 06:44:21;;;;;;;;;;;;;;;24.42;49.80;99787.94;4327321;33;20165;-81
2022/07/15 06:46:51;;;;;;;;;;;;;;;24.17;50.61;99790.69;4323822;33;20003;-81
2022/07/15 06:49:27;;;;;;;;;;;;;;;24.34;50.03;99805.88;4323553;33;20359;-82
2022/07/15 06:51:54;;;;;;;;;;;;;;;24.14;50.97;99804.91;4323374;33;19987;-81
2022/07/15 06:54:22;;;;;;;;;;;;;;;24.41;50.17;99833.84;4325590;33;19998;-82
2022/07/15 06:56:49;;;;;;;;;;;;;;;24.57;49.75;99845.53;4324210;33;20913;-81
2022/07/15 06:59:15;;;;;;;;;;;;;;;24.46;50.16;99857.47;4312830;32;20055;-81
2022/07/15 07:01:51;;;;;;;;;;;;;;;24.11;51.90;99862.34;4307715;33;19992;-82
2022/07/15 07:04:55;;;;;;;;;;;;;;;24.35;51.21;99871.13;4308906;33;20269;-81
2022/07/15 07:07:22;;;;;;;;;;;;;;;24.14;51.86;99876.31;4309020;33;20052;-81
2022/07/15 07:09:49;;;;;;;;;;;;;;;24.32;50.86;99887.13;4310644;33;20086;-82
2022/07/15 07:12:17;;;;;;;;;;;;;;;24.53;50.35;99888.91;4310869;33;19988;-81
2022/07/15 07:14:44;;;;;;;;;;;;;;;24.47;50.27;99881.22;4306726;33;19976;-81
2022/07/15 07:17:10;;;;;;;;;;;;;;;24.02;51.77;99868.84;4302710;33;19984;-82
2022/07/15 07:19:37;;;;;;;;;;;;;;;24.19;51.26;99870.00;4297146;33;19981;-81
2022/07/15 07:22:04;;;;;;;;;;;;;;;24.09;52.34;99870.38;4296937;33;20412;-80
2022/07/15 07:24:32;;;;;;;;;;;;;;;24.30;52.02;99857.19;4301653;33;19973;-80
2022/07/15 07:26:58;;;;;;;;;;;;;;;24.29;52.42;99871.34;4298347;33;20037;-80
2022/07/15 07:29:32;;;;;;;;;;;;;;;24.10;53.20;99882.66;4303357;33;20005;-80
2022/07/15 07:31:59;;;;;;;;;;;;;;;24.02;54.10;99890.00;4302220;32;20046;-80
2022/07/15 07:34:26;;;;;;;;;;;;;;;24.01;54.39;99890.94;4291197;33;19988;-80
2022/07/15 07:36:53;;;;;;;;;;;;;;;24.02;55.13;99889.16;4316731;33;20006;-79
2022/07/15 07:39:20;;;;;;;;;;;;;;;24.08;55.13;99879.19;4314312;33;20018;-80
2022/07/15 07:41:49;;;;;;;;;;;;;;;24.28;54.38;99870.50;4311602;33;20008;-81
2022/07/15 07:44:16;;;;;;;;;;;;;;;24.38;53.14;99860.41;4311264;33;19972;-80
2022/07/15 07:46:43;;;;;;;;;;;;;;;24.40;52.76;99874.41;4311761;33;19996;-80
2022/07/15 07:49:12;;;;;;;;;;;;;;;24.53;51.23;99896.84;4316946;33;20316;-81
2022/07/15 07:52:00;;;;;;;;;;;;;;;24.27;51.98;99894.34;4313297;33;20043;-81
2022/07/15 07:54:26;;;;;;;;;;;;;;;24.28;52.57;99880.19;4323946;33;20031;-81
2022/07/15 07:56:53;;;;;;;;;;;;;;;24.25;52.73;99869.72;4326353;32;19980;-81
2022/07/15 07:59:21;;;;;;;;;;;;;;;24.31;52.92;99880.06;4321300;33;20031;-80
2022/07/15 08:01:47;;;;;;;;;;;;;;;24.45;53.41;99872.50;4299968;32;20047;-81
2022/07/15 08:04:17;;;;;;;;;;;;;;;24.53;53.37;99874.81;4328076;33;19984;-82
2022/07/15 08:06:44;;;;;;;;;;;;;;;24.53;53.16;99875.66;4307852;33;20056;-81
2022/07/15 08:09:11;;;;;;;;;;;;;;;24.51;53.07;99866.94;4297268;33;20477;-80
2022/07/15 08:11:38;;;;;;;;;;;;;;;24.49;53.75;99879.37;4304255;33;20039;-80
2022/07/15 08:14:06;;;;;;;;;;;;;;;24.53;54.46;99909.22;4296409;33;19977;-80
2022/07/15 08:16:33;;;;;;;;;;;;;;;24.91;52.33;99912.94;4307279;33;19985;-80
2022/07/15 08:19:00;;;;;;;;;;;;;;;24.67;53.64;99913.97;4302431;33;20306;-80
2022/07/15 08:21:28;;;;;;;;;;;;;;;24.88;52.65;99912.22;4299184;33;20013;-80
2022/07/15 08:23:54;;;;;;;;;;;;;;;24.44;55.64;99921.06;4303845;33;20063;-81
2022/07/15 08:26:25;;;;;;;;;;;;;;;24.54;55.26;99925.06;4296897;33;19981;-81
2022/07/15 08:28:51;;;;;;;;;;;;;;;24.56;56.29;99917.91;4302681;33;20002;-80
2022/07/15 08:31:35;;;;;;;;;;;;;;;24.50;57.52;99923.44;4321277;32;19987;-79
2022/07/15 08:34:02;;;;;;;;;;;;;;;24.66;56.43;99923.69;4310933;32;20571;-81
2022/07/15 08:36:30;;;;;;;;;;;;;;;24.89;56.01;99925.41;4315290;32;20003;-80
2022/07/15 08:38:57;;;;;;;;;;;;;;;24.92;56.32;99922.63;4316640;33;20035;-80
2022/07/15 08:41:25;;;;;;;;;;;;;;;25.02;55.30;99912.50;4314846;33;19998;-79
2022/07/15 08:43:52;;;;;;;;;;;;;;;24.88;56.16;99918.38;4311051;33;20311;-80
2022/07/15 08:46:19;;;;;;;;;;;;;;;25.03;55.37;99912.44;4311162;32;20020;-81
2022/07/15 08:48:51;;;;;;;;;;;;;;;24.98;55.33;99909.13;4311798;33;19981;-80
2022/07/15 08:51:20;;;;;;;;;;;;;;;25.00;55.69;99931.09;4318206;33;19998;-80
2022/07/15 08:53:47;;;;;;;;;;;;;;;24.94;55.25;99944.59;4311019;33;19976;-80
2022/07/15 08:56:16;;;;;;;;;;;;;;;24.96;55.98;99937.47;4311190;33;20044;-80
2022/07/15 08:58:43;;;;;;;;;;;;;;;25.09;55.25;99939.59;4326180;33;20286;-80
2022/07/15 09:01:25;;;;;;;;;;;;;;;25.14;55.32;99940.28;4322833;33;19992;-80
2022/07/15 09:03:52;;;;;;;;;;;;;;;25.02;55.94;99936.34;4310143;32;19991;-80
2022/07/15 09:06:38;;;;;;;;;;;;;;;25.14;54.91;99934.97;4312516;33;19995;-80
2022/07/15 09:09:24;;;;;;;;;;;;;;;24.35;57.92;99929.31;4325908;33;19984;-80
2022/07/15 09:11:54;;;;;;;;;;;;;;;25.10;55.21;99943.97;4318101;33;20353;-81
2022/07/15 09:14:32;;;;;;;;;;;;;;;25.03;55.96;99965.41;4311263;33;19977;-80
2022/07/15 09:17:09;;;;;;;;;;;;;;;25.33;54.55;99957.13;4326711;32;19987;-81
2022/07/15 09:19:56;;;;;;;;;;;;;;;25.21;54.88;99941.78;4311921;33;19994;-79
2022/07/15 09:22:23;;;;;;;;;;;;;;;25.20;53.26;99913.53;4319251;33;20047;-80
2022/07/15 09:24:51;;;;;;;;;;;;;;;25.18;55.28;99934.81;4325457;33;19984;-80
2022/07/15 09:27:28;;;;;;;;;;;;;;;25.10;56.90;99933.37;4335958;32;19998;-79
2022/07/15 09:38:12;;;;;;;;;;;;;;;25.29;56.10;99960.84;4317587;33;20051;-81
2022/07/15 09:40:47;;;;;;;;;;;;;;;25.29;56.32;99967.00;4327336;32;20047;-81
2022/07/15 09:43:14;;;;;;;;;;;;;;;24.96;56.60;99968.38;4335005;33;20043;-80
2022/07/15 09:45:41;;;;;;;;;;;;;;;25.05;54.31;99974.16;4312584;33;19999;-81
2022/07/15 09:48:09;;;;;;;;;;;;;;;25.03;55.86;99976.00;4324351;32;19980;-80
2022/07/15 09:50:36;;;;;;;;;;;;;;;24.96;55.51;99979.84;4326256;33;20083;-80
2022/07/15 09:53:05;;;;;;;;;;;;;;;25.17;55.60;99972.81;4317324;33;20418;-80
2022/07/15 09:55:32;;;;;;;;;;;;;;;25.00;55.33;99976.13;4314662;33;20055;-80
2022/07/15 09:57:59;;;;;;;;;;;;;;;25.24;55.00;99973.44;4328552;33;19984;-81
2022/07/15 10:00:26;;;;;;;;;;;;;;;25.26;53.43;99960.97;4300995;33;20000;-81
2022/07/15 10:02:53;;;;;;;;;;;;;;;25.50;51.33;99949.31;4294462;33;20337;-81
2022/07/15 10:05:20;;;;;;;;;;;;;;;25.35;52.11;99933.22;4329753;33;20337;-80
2022/07/15 10:07:47;;;;;;;;;;;;;;;25.46;51.37;99900.03;4314882;33;19976;-81
2022/07/15 10:10:14;;;;;;;;;;;;;;;25.61;51.14;99876.38;4318745;33;19985;-82
2022/07/15 10:13:00;;;;;;;;;;;;;;;25.59;52.31;99872.94;4319054;33;20002;-81
2022/07/15 10:15:33;;;;;;;;;;;;;;;25.69;53.11;99898.12;4318693;33;20314;-81
2022/07/15 10:18:18;;;;;;;;;;;;;;;25.47;53.94;99922.09;4323281;33;19985;-82
2022/07/15 10:20:54;;;;;;;;;;;;;;;25.76;52.44;99923.44;4318871;33;20330;-81
2022/07/15 10:23:38;;;;;;;;;;;;;;;25.77;52.81;99919.84;4337470;33;19980;-82
2022/07/15 10:26:17;;;;;;;;;;;;;;;25.85;51.51;99900.97;4337333;33;20010;-81
2022/07/15 10:28:47;;;;;;;;;;;;;;;25.68;52.12;99877.81;4323681;32;20003;-81
2022/07/15 10:31:16;;;;;;;;;;;;;;;25.93;51.00;99867.84;4322651;32;19987;-81
2022/07/15 10:34:03;;;;;;;;;;;;;;;26.14;45.05;99860.66;4324857;33;20821;-81
2022/07/15 10:36:40;;;;;;;;;;;;;;;26.10;44.34;99866.19;4320654;33;20000;-80
2022/07/15 10:39:08;;;;;;;;;;;;;;;26.29;39.26;99874.13;4316082;33;20011;-80
2022/07/15 10:41:47;;;;;;;;;;;;;;;26.34;37.85;99878.28;4314602;33;19979;-80
2022/07/15 10:44:14;;;;;;;;;;;;;;;26.44;38.40;99884.84;4326937;33;20011;-80
2022/07/15 10:46:41;;;;;;;;;;;;;;;26.55;38.77;99891.50;4015971;32;10004564;-79
2022/07/15 10:49:11;;;;;;;;;;;;;;;26.65;35.97;99898.91;4317211;32;19991;-79
2022/07/15 10:51:39;;;;;;;;;;;;;;;26.69;35.54;99904.94;4314769;33;19992;-79
2022/07/15 10:54:09;;;;;;;;;;;;;;;26.89;37.14;99902.13;4312569;33;19980;-81
2022/07/15 10:56:37;;;;;;;;;;;;;;;27.21;38.16;99902.31;4311857;33;19991;-80
2022/07/15 10:59:19;;;;;;;;;;;;;;;27.47;33.13;99897.44;4313324;33;20007;-80
2022/07/15 11:01:47;;;;;;;;;;;;;;;27.46;34.37;99906.38;4314982;33;19995;-81
2022/07/15 11:04:18;;;;;;;;;;;;;;;27.44;32.66;99897.59;4312150;33;20043;-81
2022/07/15 11:07:12;;;;;;;;;;;;;;;27.32;33.16;99910.63;4312470;33;20007;-80
2022/07/15 11:09:58;;;;;;;;;;;;;;;27.39;31.78;99899.66;4320570;33;20408;-81
2022/07/15 11:12:28;;;;;;;;;;;;;;;27.33;31.51;99895.53;4312149;33;19981;-81
2022/07/15 11:14:55;;;;;;;;;;;;;;;27.23;30.41;99900.47;4317432;32;20007;-82
2022/07/15 11:17:37;;;;;;;;;;;;;;;27.09;30.32;99892.28;4308870;32;20008;-82
2022/07/15 11:20:08;;;;;;;;;;;;;;;27.25;29.81;99895.03;4319151;33;20366;-82
2022/07/15 11:22:39;;;;;;;;;;;;;;;27.39;29.38;99894.34;4331983;32;20255;-81
2022/07/15 11:25:18;;;;;;;;;;;;;;;27.08;31.33;99906.53;4336935;33;20011;-81
2022/07/15 11:27:55;;;;;;;;;;;;;;;27.30;30.42;99893.87;4332608;32;19984;-81
2022/07/15 11:30:40;;;;;;;;;;;;;;;27.34;29.64;99887.44;4316586;33;19994;-82
2022/07/15 11:33:11;;;;;;;;;;;;;;;27.52;29.51;99892.75;4318378;33;20031;-83
2022/07/15 11:36:11;;;;;;;;;;;;;;;27.63;29.47;99898.34;4318714;33;19988;-79
2022/07/15 11:38:39;;;;;;;;;;;;;;;27.68;28.59;99893.66;4312760;33;19988;-79
2022/07/15 11:46:47;;;;;;;;;;;;;;;28.09;28.15;99887.91;4332961;33;20106;-79
2022/07/15 11:49:27;;;;;;;;;;;;;;;28.06;28.16;99885.41;4321635;32;20472;-79
2022/07/15 11:51:54;;;;;;;;;;;;;;;28.21;27.06;99887.22;4324727;33;19983;-79
2022/07/15 11:54:22;;;;;;;;;;;;;;;28.41;26.51;99879.94;4324973;33;19983;-79
2022/07/15 11:56:53;;;;;;;;;;;;;;;28.42;26.13;99886.97;4321438;32;19999;-79
2022/07/15 11:59:20;;;;;;;;;;;;;;;28.11;26.47;99887.81;4323325;33;20006;-79
2022/07/15 12:01:47;;;;;;;;;;;;;;;28.02;27.75;99899.84;4325113;33;20043;-78
2022/07/15 12:04:14;;;;;;;;;;;;;;;28.05;26.60;99902.34;4323502;33;19996;-78
2022/07/15 12:06:41;;;;;;;;;;;;;;;27.67;28.73;99883.97;4324601;33;20511;-78
2022/07/15 12:09:08;;;;;;;;;;;;;;;27.60;28.75;99893.22;4324594;33;20059;-81
2022/07/15 12:11:38;;;;;;;;;;;;;;;27.62;28.95;99896.63;4322081;33;19980;-78
2022/07/15 12:14:08;;;;;;;;;;;;;;;27.67;28.30;99899.91;4311619;33;20022;-78
2022/07/15 12:16:39;;;;;;;;;;;;;;;28.08;27.21;99894.19;4334125;32;20457;-78
2022/07/15 12:19:07;;;;;;;;;;;;;;;28.01;27.19;99903.41;4324422;33;20014;-80
2022/07/15 12:21:37;;;;;;;;;;;;;;;28.03;27.36;99909.53;4323575;33;20384;-80
2022/07/15 12:24:17;;;;;;;;;;;;;;;28.45;26.32;99902.78;4323554;33;19995;-79
2022/07/15 12:26:50;;;;;;;;;;;;;;;28.70;25.37;99894.22;4322875;33;20031;-79
2022/07/15 12:29:18;;;;;;;;;;;;;;;29.16;24.27;99895.09;4322641;33;20031;-79
2022/07/15 12:31:56;;;;;;;;;;;;;;;29.32;24.15;99889.66;4323765;33;20074;-79
2022/07/15 12:34:43;;;;;;;;;;;;;;;29.49;23.32;99891.31;4321755;33;20035;-79
2022/07/15 12:37:09;;;;;;;;;;;;;;;29.63;23.53;99877.13;4318856;33;20062;-81
2022/07/15 12:40:04;;;;;;;;;;;;;;;29.86;22.21;99878.34;4312705;33;19983;-80
2022/07/15 12:42:32;;;;;;;;;;;;;;;30.08;22.08;99880.53;4317872;33;19994;-81
2022/07/15 12:45:19;;;;;;;;;;;;;;;30.03;21.47;99878.16;4309485;33;19989;-79
2022/07/15 12:48:05;;;;;;;;;;;;;;;30.24;21.07;99870.59;4311806;33;20040;-80
2022/07/15 12:50:33;;;;;;;;;;;;;;;30.34;22.00;99868.16;4328371;33;19959;-78
2022/07/15 12:53:01;;;;;;;;;;;;;;;30.26;21.50;99879.37;4321668;33;20682;-79
2022/07/15 12:55:29;;;;;;;;;;;;;;;30.13;21.73;99865.91;4316789;32;19999;-79
2022/07/15 12:58:08;;;;;;;;;;;;;;;30.28;21.67;99873.91;4341160;32;19988;-81
2022/07/15 13:00:36;;;;;;;;;;;;;;;30.59;20.20;99862.91;4322291;33;19988;-80
2022/07/15 13:03:04;;;;;;;;;;;;;;;30.52;19.55;99872.31;4324261;33;19980;-78
2022/07/15 13:05:34;;;;;;;;;;;;;;;30.47;19.40;99863.75;4321602;33;19992;-79
2022/07/15 13:08:02;;;;;;;;;;;;;;;30.53;19.96;99871.34;4310792;33;20012;-79
2022/07/15 13:10:35;;;;;;;;;;;;;;;30.73;19.44;99880.72;4323880;33;19998;-81
2022/07/15 13:13:04;;;;;;;;;;;;;;;30.44;20.46;99879.09;4312791;33;20129;-80
2022/07/15 13:15:32;;;;;;;;;;;;;;;30.71;18.95;99877.28;4324567;33;20035;-78
2022/07/15 13:18:00;;;;;;;;;;;;;;;30.80;20.37;99875.84;4341045;32;20013;-79